createdAt,value
2022-08-17T00:02:05.815Z,12.27
2022-08-17T00:04:50.564Z,12.77
2022-08-17T00:07:17.455Z,12.20
2022-08-17T00:09:44.088Z,13.07
2022-08-17T00:12:42.885Z,12.40
2022-08-17T00:14:57.809Z,13.70
2022-08-17T00:17:24.530Z,13.13
2022-08-17T00:19:51.163Z,13.97
2022-08-17T00:22:31.783Z,13.47
2022-08-17T00:25:07.391Z,13.23
2022-08-17T00:27:34.664Z,13.90
2022-08-17T00:30:01.637Z,13.40
2022-08-17T00:33:14.906Z,13.67
2022-08-17T00:35:18.244Z,14.40
2022-08-17T00:37:45.173Z,14.67
2022-08-17T00:40:14.420Z,14.43
2022-08-17T00:42:42.640Z,13.47
2022-08-17T00:45:11.842Z,15.23
2022-08-17T00:47:38.669Z,15.33
2022-08-17T00:50:09.394Z,15.87
2022-08-17T00:52:43.329Z,14.50
2022-08-17T00:55:11.026Z,14.30
2022-08-17T00:57:44.861Z,14.83
2022-08-17T01:00:28.127Z,14.10
2022-08-17T01:03:00.317Z,15.40
2022-08-17T01:05:31.066Z,15.67
2022-08-17T01:08:00.095Z,16.17
2022-08-17T01:10:57.430Z,15.47
2022-08-17T01:13:36.763Z,14.17
2022-08-17T01:16:28.295Z,14.40
2022-08-17T01:18:59.188Z,14.83
2022-08-17T01:21:37.929Z,15.13
2022-08-17T01:24:04.781Z,17.77
2022-08-17T01:26:33.124Z,16.90
2022-08-17T01:29:02.253Z,17.17
2022-08-17T01:31:33.240Z,17.87
2022-08-17T01:34:04.309Z,18.30
2022-08-17T01:36:31.069Z,18.57
2022-08-17T01:38:57.818Z,19.57
2022-08-17T01:41:24.670Z,20.70
2022-08-17T01:43:56.996Z,19.43
2022-08-17T01:46:29.046Z,19.40
2022-08-17T01:48:57.394Z,19.00
2022-08-17T01:51:32.868Z,19.40
2022-08-17T01:54:05.005Z,18.90
2022-08-17T01:56:33.875Z,19.17
2022-08-17T01:59:00.669Z,19.50
2022-08-17T02:01:30.434Z,19.40
2022-08-17T02:04:00.911Z,20.30
2022-08-17T02:06:31.406Z,19.80
2022-08-17T02:09:08.918Z,19.00
2022-08-17T02:11:43.599Z,19.07
2022-08-17T02:14:12.167Z,19.03
2022-08-17T02:16:41.331Z,19.77
2022-08-17T02:19:11.059Z,19.20
2022-08-17T02:21:40.424Z,19.80
2022-08-17T02:24:11.578Z,19.90
2022-08-17T02:26:38.335Z,19.00
2022-08-17T02:29:05.264Z,19.33
2022-08-17T02:31:32.063Z,20.00
2022-08-17T02:34:04.072Z,18.77
2022-08-17T02:36:33.696Z,19.30
2022-08-17T02:39:03.087Z,20.33
2022-08-17T02:41:30.370Z,19.97
2022-08-17T02:43:57.140Z,20.37
2022-08-17T02:46:23.851Z,19.83
2022-08-17T02:48:50.601Z,21.20
2022-08-17T02:51:17.416Z,21.30
2022-08-17T02:53:44.369Z,19.80
2022-08-17T02:56:11.038Z,19.90
2022-08-17T02:58:37.879Z,19.40
2022-08-17T03:01:07.562Z,20.87
2022-08-17T03:03:35.769Z,19.27
2022-08-17T03:06:03.221Z,20.57
2022-08-17T03:08:30.305Z,20.03
2022-08-17T03:10:57.180Z,19.90
2022-08-17T03:13:24.224Z,19.20
2022-08-17T03:15:51.431Z,21.37
2022-08-17T03:18:25.097Z,21.60
2022-08-17T03:20:58.293Z,20.07
2022-08-17T03:23:26.509Z,20.77
2022-08-17T03:25:55.181Z,20.40
2022-08-17T03:28:23.230Z,19.07
2022-08-17T03:30:51.034Z,19.03
2022-08-17T03:33:18.290Z,20.57
2022-08-17T03:35:45.671Z,20.50
2022-08-17T03:38:15.065Z,20.60
2022-08-17T03:40:56.569Z,21.53
2022-08-17T03:43:25.682Z,21.87
2022-08-17T03:46:28.367Z,21.60
2022-08-17T03:49:16.363Z,21.40
2022-08-17T03:52:01.999Z,21.07
2022-08-17T03:54:47.490Z,22.53
2022-08-17T03:57:14.245Z,22.10
2022-08-17T03:59:41.417Z,21.07
2022-08-17T04:02:12.777Z,21.30
2022-08-17T04:04:40.207Z,22.67
2022-08-17T04:07:07.649Z,22.50
2022-08-17T04:09:34.889Z,21.90
2022-08-17T04:12:04.860Z,22.03
2022-08-17T04:14:36.273Z,21.10
2022-08-17T04:17:18.266Z,21.50
2022-08-17T04:19:46.652Z,21.00
2022-08-17T04:22:33.318Z,21.50
2022-08-17T04:25:29.928Z,21.40
2022-08-17T04:27:57.154Z,21.07
2022-08-17T04:30:24.713Z,22.37
2022-08-17T04:33:00.566Z,22.77
2022-08-17T04:35:44.433Z,19.90
2022-08-17T04:38:14.104Z,21.87
2022-08-17T04:40:59.750Z,20.33
2022-08-17T04:43:28.031Z,21.27
2022-08-17T04:46:01.041Z,20.57
2022-08-17T04:48:36.327Z,20.13
2022-08-17T04:51:27.979Z,20.70
2022-08-17T04:53:59.873Z,19.77
2022-08-17T04:56:28.751Z,20.90
2022-08-17T04:59:00.409Z,21.27
2022-08-17T05:01:30.082Z,20.17
2022-08-17T05:03:59.739Z,21.80
2022-08-17T05:06:29.754Z,21.17
2022-08-17T05:08:58.582Z,21.30
2022-08-17T05:11:26.969Z,21.23
2022-08-17T05:13:55.355Z,21.07
2022-08-17T05:16:23.689Z,22.43
2022-08-17T05:18:50.744Z,20.33
2022-08-17T05:21:18.482Z,22.07
2022-08-17T05:23:49.202Z,20.83
2022-08-17T05:26:26.131Z,21.07
2022-08-17T05:29:00.669Z,19.90
2022-08-17T05:31:30.494Z,21.20
2022-08-17T05:33:57.331Z,21.60
2022-08-17T05:36:41.565Z,21.67
2022-08-17T05:39:16.115Z,19.90
2022-08-17T05:41:45.562Z,19.37
2022-08-17T05:44:12.234Z,20.70
2022-08-17T05:46:43.323Z,19.37
2022-08-17T05:49:11.037Z,18.50
2022-08-17T05:52:05.483Z,17.73
2022-08-17T05:54:50.975Z,19.40
2022-08-17T05:57:39.498Z,18.10
2022-08-17T06:00:20.265Z,18.30
2022-08-17T06:02:53.302Z,17.50
2022-08-17T06:05:48.518Z,17.47
2022-08-17T06:08:18.237Z,17.23
2022-08-17T06:11:01.722Z,17.47
2022-08-17T06:13:53.396Z,18.40
2022-08-17T06:16:34.295Z,17.60
2022-08-17T06:19:27.972Z,15.77
2022-08-17T06:21:55.453Z,17.43
2022-08-17T06:24:43.860Z,18.27
2022-08-17T06:27:36.982Z,16.53
2022-08-17T06:30:14.899Z,16.00
2022-08-17T06:32:45.485Z,14.40
2022-08-17T06:35:15.569Z,15.87
2022-08-17T06:38:10.379Z,15.87
2022-08-17T06:41:26.698Z,15.20
2022-08-17T06:44:09.891Z,14.60
2022-08-17T06:46:48.408Z,15.97
2022-08-17T06:49:21.895Z,15.10
2022-08-17T06:52:46.465Z,15.70
2022-08-17T06:55:18.598Z,13.23
2022-08-17T06:57:52.423Z,14.50
2022-08-17T07:00:26.630Z,13.10
2022-08-17T07:03:11.598Z,13.50
2022-08-17T07:05:42.509Z,13.10
2022-08-17T07:08:11.502Z,12.13
2022-08-17T07:10:44.494Z,11.67
2022-08-17T07:13:25.349Z,13.17
2022-08-17T07:15:58.385Z,11.90
2022-08-17T07:18:26.846Z,12.03
2022-08-17T07:21:00.193Z,11.03
2022-08-17T07:23:41.907Z,10.63
2022-08-17T07:26:09.315Z,9.63
2022-08-17T07:28:36.999Z,9.13
2022-08-17T07:31:04.941Z,9.63
2022-08-17T07:33:35.019Z,8.77
2022-08-17T07:36:02.283Z,8.20
2022-08-17T07:38:31.768Z,9.70
2022-08-17T07:41:02.030Z,7.87
2022-08-17T07:43:40.524Z,7.80
2022-08-17T07:46:41.367Z,6.97
2022-08-17T07:49:11.155Z,7.50
2022-08-17T07:51:52.880Z,7.20
2022-08-17T07:54:22.267Z,7.80
2022-08-17T07:56:56.153Z,8.33
2022-08-17T07:59:29.449Z,7.80
2022-08-17T08:02:07.906Z,7.07
2022-08-17T08:05:02.071Z,6.90
2022-08-17T08:07:36.986Z,7.17
2022-08-17T08:10:35.449Z,7.60
2022-08-17T08:13:14.603Z,6.90
2022-08-17T08:15:54.227Z,7.50
2022-08-17T08:18:53.562Z,7.70
2022-08-17T08:21:43.360Z,8.00
2022-08-17T08:24:40.275Z,6.83
2022-08-17T08:27:27.970Z,8.63
2022-08-17T08:30:04.948Z,8.10
2022-08-17T08:32:44.194Z,8.10
2022-08-17T08:35:37.158Z,8.40
2022-08-17T08:38:32.588Z,8.50
2022-08-17T08:41:44.663Z,8.70
2022-08-17T08:45:00.376Z,8.53
2022-08-17T08:47:32.083Z,8.63
2022-08-17T08:50:42.614Z,8.43
2022-08-17T08:53:30.670Z,9.07
2022-08-17T08:56:11.797Z,9.37
2022-08-17T08:59:02.153Z,9.20
2022-08-17T09:01:56.920Z,8.87
2022-08-17T09:05:10.764Z,8.97
2022-08-17T09:07:38.918Z,9.57
2022-08-17T09:10:27.052Z,9.80
2022-08-17T09:13:09.621Z,8.90
2022-08-17T09:15:47.170Z,9.60
2022-08-17T09:19:02.178Z,9.00
2022-08-17T09:21:22.589Z,10.07
2022-08-17T09:24:00.039Z,9.70
2022-08-17T09:27:09.893Z,10.50
2022-08-17T09:29:42.804Z,9.70
2022-08-17T09:32:19.490Z,10.40
2022-08-17T09:35:03.961Z,10.57
2022-08-17T09:37:53.386Z,10.23
2022-08-17T09:40:55.422Z,9.80
2022-08-17T09:43:50.752Z,11.30
2022-08-17T09:46:47.794Z,11.43
2022-08-17T09:49:29.665Z,11.20
2022-08-17T09:52:02.806Z,9.93
2022-08-17T09:54:39.156Z,9.70
2022-08-17T09:57:29.849Z,11.40
2022-08-17T10:00:16.333Z,11.67
2022-08-17T10:03:01.699Z,10.90
2022-08-17T10:05:31.453Z,11.97
2022-08-17T10:08:16.969Z,11.03
2022-08-17T10:11:10.110Z,13.50
2022-08-17T10:13:56.181Z,11.90
2022-08-17T10:16:40.729Z,12.83
2022-08-17T10:19:29.020Z,11.40
2022-08-17T10:22:35.430Z,11.60
2022-08-17T10:25:26.126Z,11.07
2022-08-17T10:28:11.743Z,10.47
2022-08-17T10:31:10.539Z,11.30
2022-08-17T10:34:18.757Z,11.93
2022-08-17T10:36:48.438Z,12.30
2022-08-17T10:39:27.165Z,12.53
2022-08-17T10:41:59.077Z,13.57
2022-08-17T10:44:47.631Z,11.60
2022-08-17T10:47:18.940Z,15.50
2022-08-17T10:49:52.336Z,14.40
2022-08-17T10:52:29.846Z,16.83
2022-08-17T10:54:58.157Z,14.00
2022-08-17T10:57:42.423Z,14.80
2022-08-17T11:00:35.015Z,15.60
2022-08-17T11:03:02.389Z,16.07
2022-08-17T11:05:43.471Z,15.63
2022-08-17T11:08:43.505Z,17.70
2022-08-17T11:11:38.391Z,17.90
2022-08-17T11:14:52.787Z,18.27
2022-08-17T11:17:41.502Z,18.90
2022-08-17T11:20:46.053Z,17.20
2022-08-17T11:23:44.902Z,21.30
2022-08-17T11:26:26.224Z,22.60
2022-08-17T11:28:59.954Z,22.50
2022-08-17T11:31:38.295Z,22.20
2022-08-17T11:34:15.952Z,21.57
2022-08-17T11:37:15.078Z,25.83
2022-08-17T11:40:06.711Z,41.30
2022-08-17T11:43:05.367Z,46.13
2022-08-17T11:45:50.802Z,49.53
2022-08-17T11:48:54.026Z,46.70
2022-08-17T11:51:42.133Z,47.90
2022-08-17T11:54:34.060Z,53.10
2022-08-17T11:57:27.466Z,53.37
2022-08-17T12:00:09.958Z,55.43
2022-08-17T12:02:47.468Z,57.77
2022-08-17T12:05:17.297Z,58.03
2022-08-17T12:07:51.978Z,55.60
2022-08-17T12:10:29.963Z,59.10
2022-08-17T12:12:57.609Z,57.23
2022-08-17T12:15:31.848Z,56.90
2022-08-17T12:17:58.884Z,59.17
2022-08-17T12:20:32.888Z,59.10
2022-08-17T12:23:41.224Z,57.50
2022-08-17T12:26:25.970Z,57.03
2022-08-17T12:28:59.849Z,60.00
2022-08-17T12:31:43.087Z,56.47
2022-08-17T12:34:17.295Z,54.67
2022-08-17T12:36:44.290Z,51.10
2022-08-17T12:39:14.024Z,53.27
2022-08-17T12:41:47.816Z,49.47
2022-08-17T12:44:32.158Z,48.03
2022-08-17T12:47:21.938Z,47.07
2022-08-17T12:49:52.214Z,46.20
2022-08-17T12:52:32.780Z,47.13
2022-08-17T12:55:07.037Z,45.07
2022-08-17T12:57:39.444Z,47.17
2022-08-17T13:00:23.560Z,46.90
2022-08-17T13:02:54.705Z,45.33
2022-08-17T13:05:54.471Z,45.10
2022-08-17T13:08:29.476Z,45.00
2022-08-17T13:10:57.951Z,47.87
2022-08-17T13:13:28.417Z,48.40
2022-08-17T13:16:11.894Z,52.07
2022-08-17T13:18:44.769Z,49.20
2022-08-17T13:21:27.062Z,46.93
2022-08-17T13:24:00.252Z,44.10
2022-08-17T13:26:35.181Z,44.57
2022-08-17T13:29:06.214Z,41.33
2022-08-17T13:31:49.177Z,42.07
2022-08-17T13:34:27.015Z,38.80
2022-08-17T13:37:29.832Z,42.30
2022-08-17T13:40:19.330Z,41.97
2022-08-17T13:42:54.648Z,39.20
2022-08-17T13:45:35.234Z,41.30
2022-08-17T13:48:13.635Z,42.40
2022-08-17T13:50:42.770Z,40.87
2022-08-17T13:53:31.534Z,42.30
2022-08-17T13:56:38.032Z,41.60
2022-08-17T13:59:14.828Z,40.50
2022-08-17T14:01:53.574Z,41.40
2022-08-17T14:04:27.931Z,39.27
2022-08-17T14:06:54.689Z,39.60
2022-08-17T14:09:31.372Z,41.30
2022-08-17T14:12:02.306Z,38.50
2022-08-17T14:14:30.197Z,39.20
2022-08-17T14:16:57.477Z,42.37
2022-08-17T14:19:24.774Z,39.07
2022-08-17T14:21:56.416Z,41.30
2022-08-17T14:24:35.367Z,41.27
2022-08-17T14:27:04.420Z,42.93
2022-08-17T14:29:33.132Z,44.20
2022-08-17T14:32:09.101Z,45.17
2022-08-17T14:34:35.851Z,39.43
2022-08-17T14:37:02.647Z,44.50
2022-08-17T14:39:32.763Z,45.27
2022-08-17T14:42:00.926Z,43.47
2022-08-17T14:44:27.544Z,43.07
2022-08-17T14:46:54.476Z,43.70
2022-08-17T14:49:21.229Z,44.77
2022-08-17T14:51:48.228Z,47.03
2022-08-17T14:54:32.993Z,45.30
2022-08-17T14:57:26.062Z,42.87
2022-08-17T14:59:54.797Z,44.87
2022-08-17T15:02:29.776Z,45.37
2022-08-17T15:05:03.390Z,43.87
2022-08-17T15:07:30.717Z,43.57
2022-08-17T15:10:02.047Z,44.70
2022-08-17T15:12:33.331Z,44.70
2022-08-17T15:15:04.835Z,40.07
2022-08-17T15:17:44.718Z,40.57
2022-08-17T15:20:21.834Z,40.50
2022-08-17T15:22:49.730Z,42.17
2022-08-17T15:25:17.677Z,41.87
2022-08-17T15:27:44.634Z,42.00
2022-08-17T15:30:11.898Z,43.37
2022-08-17T15:32:46.921Z,44.40
2022-08-17T15:35:27.889Z,41.00
2022-08-17T15:38:11.619Z,40.47
2022-08-17T15:40:42.163Z,37.87
2022-08-17T15:43:12.052Z,40.40
2022-08-17T15:45:39.913Z,41.23
2022-08-17T15:48:07.742Z,40.43
2022-08-17T15:50:35.647Z,37.30
2022-08-17T15:53:04.699Z,38.43
2022-08-17T15:55:32.995Z,36.67
2022-08-17T15:57:59.878Z,37.20
2022-08-17T16:00:28.665Z,34.93
2022-08-17T16:03:44.681Z,34.27
2022-08-17T16:05:50.134Z,33.23
2022-08-17T16:08:21.145Z,30.13
2022-08-17T16:10:49.722Z,30.43
2022-08-17T16:13:18.327Z,29.97
2022-08-17T16:15:56.847Z,30.27
2022-08-17T16:18:28.383Z,28.80
2022-08-17T16:20:55.324Z,27.97
2022-08-17T16:23:22.107Z,29.63
2022-08-17T16:25:52.782Z,28.57
2022-08-17T16:28:21.756Z,32.50
2022-08-17T16:30:49.130Z,31.40
2022-08-17T16:33:16.905Z,30.53
2022-08-17T16:35:43.863Z,31.30
2022-08-17T16:38:12.354Z,35.87
2022-08-17T16:40:40.447Z,36.63
2022-08-17T16:43:10.372Z,38.50
2022-08-17T16:45:40.082Z,36.80
2022-08-17T16:48:08.318Z,39.83
2022-08-17T16:50:35.971Z,39.80
2022-08-17T16:53:10.212Z,41.47
2022-08-17T16:55:38.057Z,40.40
2022-08-17T16:58:06.099Z,41.50
2022-08-17T17:00:33.675Z,43.60
2022-08-17T17:03:28.252Z,43.20
2022-08-17T17:06:18.574Z,43.60
2022-08-17T17:09:01.384Z,44.17
2022-08-17T17:11:46.702Z,40.30
2022-08-17T17:14:20.245Z,41.70
2022-08-17T17:17:03.783Z,43.70
2022-08-17T17:19:34.540Z,40.60
2022-08-17T17:22:20.221Z,42.30
2022-08-17T17:25:01.875Z,39.47
2022-08-17T17:27:50.086Z,42.93
2022-08-17T17:30:37.635Z,41.00
2022-08-17T17:33:10.019Z,43.40
2022-08-17T17:36:15.794Z,40.70
2022-08-17T17:38:53.279Z,40.60
2022-08-17T17:41:32.778Z,40.43
2022-08-17T17:44:07.527Z,41.90
2022-08-17T17:46:39.413Z,41.27
2022-08-17T17:49:06.452Z,41.63
2022-08-17T17:52:06.327Z,42.27
2022-08-17T17:55:05.997Z,39.77
2022-08-17T17:58:10.279Z,40.37
2022-08-17T18:01:09.940Z,40.83
2022-08-17T18:04:20.688Z,37.10
2022-08-17T18:06:50.946Z,36.03
2022-08-17T18:09:26.591Z,34.33
2022-08-17T18:12:23.342Z,33.87
2022-08-17T18:15:15.302Z,35.40
2022-08-17T18:18:06.960Z,36.57
2022-08-17T18:20:43.585Z,34.63
2022-08-17T18:23:27.662Z,30.07
2022-08-17T18:25:55.832Z,30.57
2022-08-17T18:28:29.756Z,28.60
2022-08-17T18:31:23.028Z,29.00
2022-08-17T18:33:53.592Z,30.53
2022-08-17T18:36:39.664Z,29.40
2022-08-17T18:39:19.318Z,29.67
2022-08-17T18:41:52.293Z,30.23
2022-08-17T18:44:35.641Z,32.30
2022-08-17T18:47:15.294Z,29.87
2022-08-17T18:49:47.039Z,29.50
2022-08-17T18:52:24.212Z,29.73
2022-08-17T18:55:05.732Z,34.00
2022-08-17T18:57:40.052Z,33.47
2022-08-17T19:00:35.779Z,32.80
2022-08-17T19:03:05.545Z,36.17
2022-08-17T19:05:41.972Z,34.97
2022-08-17T19:08:30.843Z,34.30
2022-08-17T19:11:20.662Z,37.90
2022-08-17T19:13:57.534Z,37.13
2022-08-17T19:16:34.353Z,39.80
2022-08-17T19:19:17.101Z,41.03
2022-08-17T19:21:53.126Z,44.07
2022-08-17T19:24:20.715Z,43.60
2022-08-17T19:26:58.990Z,45.47
2022-08-17T19:29:44.417Z,45.37
2022-08-17T19:32:12.548Z,39.67
2022-08-17T19:34:42.903Z,45.97
2022-08-17T19:37:37.752Z,45.20
2022-08-17T19:40:35.085Z,44.40
2022-08-17T19:43:08.934Z,44.10
2022-08-17T19:46:07.314Z,44.10
2022-08-17T19:48:55.836Z,40.33
2022-08-17T19:51:40.816Z,41.00
2022-08-17T19:54:44.623Z,42.03
2022-08-17T19:57:27.723Z,44.57
2022-08-17T20:00:00.889Z,39.53
2022-08-17T20:02:50.010Z,42.77
2022-08-17T20:05:25.700Z,39.07
2022-08-17T20:08:14.964Z,41.27
2022-08-17T20:10:48.156Z,41.33
2022-08-17T20:13:45.352Z,41.90
2022-08-17T20:16:12.560Z,44.97
2022-08-17T20:18:47.696Z,49.43
2022-08-17T20:21:21.495Z,46.60
2022-08-17T20:24:04.584Z,48.23
2022-08-17T20:26:55.486Z,49.97
2022-08-17T20:29:40.005Z,43.47
2022-08-17T20:32:28.049Z,44.40
2022-08-17T20:35:33.695Z,46.10
2022-08-17T20:38:02.295Z,49.57
2022-08-17T20:40:34.005Z,49.67
2022-08-17T20:43:32.673Z,51.20
2022-08-17T20:46:26.761Z,51.50
2022-08-17T20:49:14.978Z,51.20
2022-08-17T20:52:09.440Z,55.07
2022-08-17T20:54:48.836Z,55.20
2022-08-17T20:57:34.604Z,54.50
2022-08-17T21:00:16.332Z,55.77
2022-08-17T21:03:04.763Z,56.97
2022-08-17T21:05:57.223Z,54.57
2022-08-17T21:08:34.403Z,55.20
2022-08-17T21:12:02.477Z,58.63
2022-08-17T21:14:32.746Z,58.67
2022-08-17T21:17:36.529Z,59.07
2022-08-17T21:20:32.306Z,57.37
2022-08-17T21:23:20.677Z,58.10
2022-08-17T21:26:19.714Z,58.27
2022-08-17T21:29:00.338Z,57.70
2022-08-17T21:31:36.996Z,56.07
2022-08-17T21:34:16.237Z,56.20
2022-08-17T21:36:48.446Z,59.30
2022-08-17T21:39:21.447Z,58.20
2022-08-17T21:41:55.578Z,57.67
2022-08-17T21:44:35.940Z,55.83
2022-08-17T21:47:35.732Z,57.07
2022-08-17T21:50:24.077Z,56.77
2022-08-17T21:52:55.912Z,56.47
2022-08-17T21:55:28.442Z,56.57
2022-08-17T21:58:14.569Z,52.67
2022-08-17T22:00:44.306Z,55.73
2022-08-17T22:03:23.884Z,55.77
2022-08-17T22:05:51.471Z,53.20
2022-08-17T22:08:21.891Z,51.70
2022-08-17T22:10:51.325Z,53.43
2022-08-17T22:13:18.101Z,53.40
2022-08-17T22:15:49.685Z,53.47
2022-08-17T22:18:28.837Z,51.50
2022-08-17T22:20:57.727Z,51.90
2022-08-17T22:23:48.603Z,52.57
2022-08-17T22:26:17.682Z,50.97
2022-08-17T22:28:58.612Z,51.10
2022-08-17T22:31:49.819Z,51.67
2022-08-17T22:34:17.294Z,52.33
2022-08-17T22:36:44.048Z,54.40
2022-08-17T22:39:10.727Z,51.67
2022-08-17T22:41:43.114Z,54.60
2022-08-17T22:44:15.074Z,53.30
2022-08-17T22:47:11.367Z,55.73
2022-08-17T22:49:53.889Z,52.20
2022-08-17T22:52:59.379Z,50.03
2022-08-17T22:55:45.807Z,52.83
2022-08-17T22:58:36.937Z,51.67
2022-08-17T23:01:32.396Z,47.93
2022-08-17T23:04:02.722Z,48.30
2022-08-17T23:06:33.620Z,50.37
2022-08-17T23:09:03.779Z,48.70
2022-08-17T23:11:48.784Z,51.00
2022-08-17T23:14:19.677Z,49.77
2022-08-17T23:16:48.662Z,52.23
2022-08-17T23:19:18.799Z,50.97
2022-08-17T23:21:46.237Z,55.07
2022-08-17T23:24:22.174Z,55.83
2022-08-17T23:26:49.018Z,55.80
2022-08-17T23:29:16.587Z,57.23
2022-08-17T23:31:43.399Z,54.23
2022-08-17T23:34:13.343Z,52.17
2022-08-17T23:36:40.816Z,55.57
2022-08-17T23:39:08.055Z,54.57
2022-08-17T23:41:38.602Z,54.97
2022-08-17T23:44:06.292Z,50.47
2022-08-17T23:46:34.424Z,54.57
2022-08-17T23:49:01.395Z,54.70
2022-08-17T23:51:31.574Z,51.03
2022-08-17T23:54:08.230Z,52.03
2022-08-17T23:56:45.230Z,54.60
2022-08-17T23:59:13.753Z,54.30
